Last 48 Hours

Top of 15 - 9,047ft

15 Minute Data | America/Los_Angeles
as of 5/10/26 6:15 AM PDT
Date & Time Temp (°F) WindChill (°F) RH (%) Dew Pt (°F) Wet Bulb (°F) Wind Dir (°) Wind Spd (mph) Wind Gust (mph) Wind Gst Dir (°) Daily Min Temp (°F) Daily Max Temp (°F) Daily Max Wind (mph)
5/10/26 - 0615 48.0 46.9 23 12.0 35.7 WSW | 248 3.6 5.7 WSW | 246 46.1 49.1 9.9
5/10/26 - 0600 48.2 46.8 22 10.7 35.6 WSW | 249 3.9 7.0 WSW | 257 46.1 48.6 9.9
5/10/26 - 0545 47.4 45.3 23 11.1 35.2 WSW | 245 4.7 7.8 WSW | 246 46.1 48.5 9.9
5/10/26 - 0530 46.8 45.8 24 11.7 35.0 WSW | 252 3.4 5.3 WSW | 248 46.3 48.5 9.9
5/10/26 - 0515 46.8 45.3 24 11.7 35.0 WSW | 250 3.9 5.8 WSW | 257 46.4 48.5 9.9
5/10/26 - 0500 47.1 45.8 23 11.6 35.2 WSW | 247 3.7 5.5 WSW | 255 46.4 48.5 9.9
5/10/26 - 0445 47.7 46.7 22 11.2 35.4 WSW | 248 3.3 5.7 WSW | 243 46.4 48.5 9.9
5/10/26 - 0430 47.9 - 22 11.0 35.5 WSW | 252 2.7 4.6 SW | 230 46.4 48.5 9.9
5/10/26 - 0415 47.9 - 22 11.1 35.5 WSW | 253 3.0 4.9 WSW | 247 46.4 48.5 9.9
5/10/26 - 0400 47.4 45.1 23 11.6 35.3 WSW | 250 5.2 8.1 WSW | 242 46.4 48.5 9.9
5/10/26 - 0345 47.4 44.3 23 11.5 35.3 WSW | 245 6.6 9.9 WSW | 248 46.4 48.5 9.9
5/10/26 - 0330 46.6 43.9 25 12.4 35.0 WSW | 240 5.6 7.9 WSW | 242 46.4 48.5 7.9
5/10/26 - 0315 47.2 - 24 12.1 35.3 W | 261 3.0 6.2 WSW | 241 46.4 48.5 6.2
5/10/26 - 0300 47.2 - 24 12.2 35.3 W | 274 2.2 4.1 W | 278 46.4 48.5 4.1
5/10/26 - 0245 47.5 - 24 12.2 35.4 W | 280 2.1 3.8 W | 279 46.4 48.5 4.1
5/10/26 - 0230 47.3 - 24 12.6 35.4 WNW | 290 1.2 2.9 W | 281 46.4 48.5 4.1
5/10/26 - 0215 47.2 - 25 12.8 35.4 W | 272 2.1 3.6 W | 261 46.4 48.5 4.1
5/10/26 - 0200 46.9 - 25 13.1 35.3 WNW | 285 1.3 3.3 WNW | 290 46.4 48.5 4.1
5/10/26 - 0145 47.4 - 25 13.1 35.5 WNW | 284 1.2 4.0 W | 272 46.4 48.5 4.1
5/10/26 - 0130 47.1 - 25 13.2 35.5 WNW | 282 1.4 4.1 W | 280 46.4 48.5 4.1
5/10/26 - 0115 47.4 - 25 13.2 35.6 W | 266 1.7 3.1 WSW | 257 46.4 48.5 3.1
5/10/26 - 0100 48.1 - 24 13.0 35.9 W | 266 0.8 2.9 W | 262 42.3 64.0 15.9
5/10/26 - 0045 48.4 - 24 13.1 36.1 W | 272 0.7 3.9 WNW | 283 42.3 64.0 15.9
5/10/26 - 0030 48.5 - 24 13.0 36.2 W | 261 0.7 2.5 W | 272 42.3 64.0 15.9
5/10/26 - 0015 49.2 - 23 12.9 36.5 WSW | 248 1.1 3.2 W | 265 42.3 64.0 15.9
5/10/26 - 0000 50.0 - 22 12.5 36.9 WSW | 250 0.7 3.0 W | 278 42.3 64.0 15.9
5/9/26 - 2345 50.7 - 21 12.1 37.2 WSW | 251 2.1 5.1 WSW | 244 42.3 64.0 15.9
5/9/26 - 2330 50.8 - 21 12.1 37.2 WSW | 256 2.8 6.4 WSW | 241 42.3 64.0 15.9
5/9/26 - 2315 51.0 - 21 12.6 37.4 WSW | 255 3.4 7.2 W | 266 42.3 64.0 15.9
5/9/26 - 2300 50.5 - 24 14.7 37.5 W | 261 2.8 6.6 W | 265 42.3 64.0 15.9
5/9/26 - 2245 50.6 - 25 16.1 37.9 W | 262 2.5 6.3 WSW | 249 42.3 64.0 15.9
5/9/26 - 2230 51.1 - 24 15.3 38.0 W | 264 3.8 8.2 WSW | 244 42.3 64.0 15.9
5/9/26 - 2215 51.1 - 22 13.8 37.7 W | 274 2.7 7.6 WNW | 286 42.3 64.0 15.9
5/9/26 - 2200 50.2 - 24 14.4 37.3 W | 280 2.9 6.0 W | 274 42.3 64.0 15.9
5/9/26 - 2145 50.7 - 23 14.2 37.6 WNW | 285 1.5 4.1 WNW | 286 42.3 64.0 15.9
5/9/26 - 2130 51.2 - 24 15.4 38.0 WNW | 284 1.7 4.9 NW | 315 42.3 64.0 15.9
5/9/26 - 2115 51.6 - 24 16.1 38.4 NW | 322 2.3 6.2 - 42.3 64.0 15.9
5/9/26 - 2100 51.5 - 24 15.6 38.2 NW | 306 1.5 4.3 NW | 320 42.3 64.0 15.9
5/9/26 - 2045 52.0 - 25 17.2 38.8 WNW | 300 1.3 4.6 WNW | 299 42.3 64.0 15.9
5/9/26 - 2030 52.3 - 26 18.5 39.3 WNW | 287 1.4 3.7 WNW | 289 42.3 64.0 15.9
5/9/26 - 2015 52.5 - 27 19.7 39.6 WSW | 256 1.7 4.1 WNW | 283 42.3 64.0 15.9
5/9/26 - 2000 52.9 - 26 19.1 39.7 WNW | 291 1.3 5.6 WNW | 303 42.3 64.0 15.9
5/9/26 - 1945 53.7 - 25 18.5 39.9 WNW | 296 1.6 4.9 W | 272 42.3 64.0 15.9
5/9/26 - 1930 54.4 - 23 17.6 40.1 WNW | 294 0.8 3.3 W | 264 42.3 64.0 15.9
5/9/26 - 1915 55.1 - 22 17.3 40.4 W | 269 2.0 3.8 W | 260 42.3 64.0 15.9
5/9/26 - 1900 55.1 - 24 18.5 40.6 W | 272 1.3 4.3 W | 267 42.3 64.0 15.9
5/9/26 - 1845 56.0 - 23 18.6 41.1 WSW | 258 2.1 5.6 WSW | 255 42.3 64.0 15.9
5/9/26 - 1830 55.8 - 25 20.8 41.5 WSW | 238 3.2 5.6 SW | 222 42.3 64.0 15.9
5/9/26 - 1815 56.5 - 25 21.5 42.0 SSE | 166 2.1 7.8 ESE | 108 42.3 64.0 15.9
5/9/26 - 1800 58.9 - 21 19.3 42.6 ENE | 57 2.9 8.2 ESE | 106 42.3 64.0 15.9
5/9/26 - 1745 60.9 - 19 18.6 43.3 NNE | 21 2.9 11.3 ENE | 57 42.3 64.0 15.9
5/9/26 - 1730 61.8 - 19 18.6 43.7 NE | 47 2.8 7.2 NNE | 31 42.3 64.0 15.9
5/9/26 - 1715 61.6 - 20 19.7 43.8 ENE | 77 3.1 7.8 E | 84 42.3 64.0 15.9
5/9/26 - 1700 62.5 - 18 18.4 43.9 ENE | 66 3.4 9.9 E | 86 42.3 64.0 15.9
5/9/26 - 1645 62.6 - 18 18.1 43.9 ENE | 60 2.0 10.2 NE | 52 42.3 64.0 15.9
5/9/26 - 1630 62.4 - 18 19.0 44.0 NE | 42 4.7 14.8 NE | 42 42.3 64.0 15.9
5/9/26 - 1615 62.5 - 19 19.6 44.2 NE | 50 5.5 12.1 ENE | 74 42.3 64.0 15.9
5/9/26 - 1600 63.0 - 19 19.8 44.4 NE | 37 2.9 10.0 ENE | 67 42.3 64.0 15.9
5/9/26 - 1545 62.6 - 19 20.0 44.3 NE | 53 5.6 13.6 N | 4 42.3 64.0 15.9
5/9/26 - 1530 62.6 - 19 19.3 44.2 NE | 54 4.9 14.2 ENE | 65 42.3 64.0 15.9
5/9/26 - 1515 61.4 - 18 17.7 43.3 E | 86 2.1 6.0 E | 83 42.3 64.0 15.9
5/9/26 - 1500 61.3 - 17 16.2 43.0 NE | 45 4.9 11.8 ENE | 61 42.3 64.0 15.9
5/9/26 - 1445 62.4 - 18 18.5 43.9 E | 93 3.7 13.8 E | 94 42.3 64.0 15.9
5/9/26 - 1430 61.7 - 18 17.7 43.4 E | 91 4.3 14.2 ENE | 63 42.3 64.0 15.9
5/9/26 - 1415 61.9 - 18 18.3 43.7 ESE | 106 4.3 10.3 E | 98 42.3 63.7 15.9
5/9/26 - 1400 61.7 - 19 18.4 43.6 ESE | 118 4.4 11.1 ESE | 114 42.3 62.9 15.9
5/9/26 - 1345 61.1 - 19 19.0 43.5 E | 81 3.6 11.7 ENE | 60 42.3 62.7 15.9
5/9/26 - 1330 60.9 - 21 20.3 43.7 E | 91 4.6 13.3 E | 84 42.3 62.4 15.9
5/9/26 - 1315 60.3 - 22 21.2 43.6 E | 80 4.1 11.6 ENE | 58 42.3 62.4 15.9
5/9/26 - 1300 60.1 - 23 21.7 43.7 ESE | 110 3.9 15.9 ENE | 70 42.3 62.4 15.9
5/9/26 - 1245 59.1 - 23 21.4 43.1 E | 99 3.9 9.4 ESE | 102 42.3 61.2 13.7
5/9/26 - 1230 58.4 - 24 21.7 42.9 ENE | 76 5.1 13.7 E | 82 42.3 60.1 13.7
5/9/26 - 1215 57.8 - 24 21.5 42.6 ENE | 58 4.5 12.5 NE | 56 42.3 60.1 12.9
5/9/26 - 1200 58.7 - 24 21.8 43.1 NE | 55 4.4 11.5 E | 83 42.3 60.1 12.9
5/9/26 - 1145 56.8 - 25 21.2 42.0 NE | 47 2.4 9.5 ENE | 67 42.3 59.0 12.9
5/9/26 - 1130 57.3 - 24 21.0 42.3 E | 86 3.9 12.9 ENE | 58 42.3 59.0 12.9
5/9/26 - 1115 56.2 - 27 22.8 42.2 N | 0 1.9 8.8 NE | 52 42.3 57.9 11.0
5/9/26 - 1100 56.1 - 29 24.2 42.5 NE | 55 3.9 11.0 ENE | 76 42.3 57.6 11.0
5/9/26 - 1045 56.1 - 29 24.1 42.5 E | 86 5.0 9.4 E | 97 42.3 57.6 10.3
5/9/26 - 1030 54.5 - 30 23.7 41.6 ESE | 106 2.4 9.2 NE | 42 42.3 56.3 10.3
5/9/26 - 1015 53.8 - 30 23.1 41.1 E | 88 4.4 9.5 E | 101 42.3 55.4 10.3
5/9/26 - 1000 53.8 - 29 22.2 40.9 ENE | 61 3.7 10.3 WNW | 298 42.3 55.4 10.3
5/9/26 - 0945 53.5 - 29 22.3 40.8 ENE | 78 3.0 7.7 ENE | 75 42.3 55.4 9.8
5/9/26 - 0930 52.4 - 32 23.1 40.5 NE | 51 2.9 7.9 NE | 56 42.3 53.3 9.8
5/9/26 - 0915 51.3 - 34 23.6 40.0 NE | 48 3.8 9.8 NNW | 329 42.3 52.8 9.8
5/9/26 - 0900 51.6 - 32 23.0 40.0 ENE | 59 2.0 6.5 ENE | 67 42.3 52.8 6.5
5/9/26 - 0845 51.7 - 34 24.4 40.4 ENE | 67 2.1 5.1 ENE | 76 42.3 52.8 6.1
5/9/26 - 0830 51.3 - 35 24.3 40.2 ENE | 73 2.5 5.3 ENE | 78 42.3 52.8 6.1
5/9/26 - 0815 50.7 - 36 24.4 40.0 SE | 126 1.1 4.5 SE | 126 42.3 51.9 6.1
5/9/26 - 0800 49.0 - 37 23.6 38.9 SE | 129 1.4 4.2 ESE | 108 42.3 49.8 6.1
5/9/26 - 0745 49.2 - 37 23.7 39.0 ESE | 119 1.3 3.6 ESE | 106 42.3 49.8 6.1
5/9/26 - 0730 48.3 - 38 23.8 38.6 NNW | 332 0.8 5.8 NNE | 15 42.3 49.1 6.1
5/9/26 - 0715 47.8 - 38 23.3 38.2 NNW | 335 0.8 5.5 NNE | 30 42.3 49.0 6.1
5/9/26 - 0700 47.9 - 37 22.8 38.1 SSE | 162 0.5 3.4 SE | 134 42.3 49.0 6.1
5/9/26 - 0645 46.9 - 38 22.4 37.4 S | 183 0.4 1.8 NE | 46 42.3 47.3 6.1
5/9/26 - 0630 45.6 - 39 22.0 36.6 WNW | 288 0.6 2.6 NNE | 17 42.3 46.5 6.1
5/9/26 - 0615 43.6 - 41 21.2 35.3 NW | 319 1.7 5.6 NW | 324 42.3 45.7 6.1
5/9/26 - 0600 43.6 - 38 19.8 34.9 NNW | 339 1.0 2.8 NW | 320 42.3 45.7 6.1
5/9/26 - 0545 43.0 - 39 19.9 34.6 W | 268 1.1 4.2 W | 273 42.3 45.7 6.1
5/9/26 - 0530 42.9 - 39 19.8 34.6 W | 274 1.0 2.7 W | 269 42.3 45.7 6.1
5/9/26 - 0515 43.2 - 39 19.7 34.7 WNW | 288 1.2 3.6 W | 280 42.4 45.7 6.1
5/9/26 - 0500 43.3 - 39 19.7 34.8 WNW | 287 0.9 3.2 W | 273 42.4 45.7 6.1
5/9/26 - 0445 43.8 - 37 19.2 34.9 WNW | 292 1.7 4.0 WNW | 288 42.4 45.7 6.1
5/9/26 - 0430 43.4 - 37 19.1 34.6 W | 280 2.8 5.1 W | 275 42.4 45.7 6.1
5/9/26 - 0415 43.0 41.4 39 19.8 34.6 W | 279 3.3 4.9 W | 269 42.4 45.7 6.1
5/9/26 - 0400 43.2 42.0 39 20.2 34.9 W | 278 3.1 6.1 W | 271 42.8 45.7 6.1
5/9/26 - 0345 43.3 - 40 20.3 34.9 W | 273 1.8 4.3 W | 276 42.8 45.7 4.3
5/9/26 - 0330 43.8 - 39 20.4 35.2 W | 265 1.2 3.5 W | 279 42.8 45.7 4.2
5/9/26 - 0315 44.0 - 39 20.9 35.5 W | 267 1.5 3.8 W | 273 42.8 45.7 4.2
5/9/26 - 0300 43.9 - 40 21.0 35.4 WNW | 283 1.0 3.3 W | 271 42.8 45.6 4.2
5/9/26 - 0245 43.4 - 42 21.7 35.4 W | 268 1.9 3.7 W | 275 42.8 45.6 4.2
5/9/26 - 0230 43.9 - 42 22.2 35.8 WNW | 282 1.1 3.2 WNW | 284 43.3 45.6 4.2
5/9/26 - 0215 44.0 - 43 23.0 36.0 WNW | 287 0.8 2.4 W | 277 43.3 45.6 4.2
5/9/26 - 0200 43.9 - 43 22.7 35.9 WNW | 286 0.4 2.0 W | 280 43.3 45.6 4.2
5/9/26 - 0145 44.6 - 40 22.0 36.1 WNW | 292 1.2 2.5 WNW | 294 44.1 45.6 4.2
5/9/26 - 0130 45.2 - 38 21.4 36.3 WNW | 297 1.0 2.3 WNW | 291 44.4 45.6 4.2
5/9/26 - 0115 44.8 - 37 20.2 35.7 W | 281 2.1 4.2 WNW | 282 44.4 45.0 4.2
5/9/26 - 0100 44.6 - 36 19.2 35.4 W | 264 2.4 4.1 W | 272 44.2 59.8 21.1
5/9/26 - 0045 45.2 - 34 18.4 35.5 WNW | 286 1.4 4.0 WNW | 286 44.4 59.8 21.1
5/9/26 - 0030 45.1 - 33 17.4 35.2 WNW | 285 1.8 4.8 WNW | 285 44.5 59.8 21.1
5/9/26 - 0015 45.6 - 32 17.6 35.6 W | 278 1.4 3.3 W | 273 44.5 59.8 21.1
5/9/26 - 0000 45.5 - 33 17.8 35.5 WNW | 290 2.2 4.2 W | 277 44.5 59.8 21.1
5/8/26 - 2345 45.5 44.1 34 18.7 35.7 WSW | 252 3.5 6.2 WSW | 251 44.5 59.8 21.1
5/8/26 - 2330 45.9 44.1 35 19.8 36.2 WSW | 241 4.0 7.8 WSW | 242 44.5 59.8 21.1
5/8/26 - 2315 46.8 - 35 20.8 37.0 W | 261 1.8 3.6 W | 276 44.5 59.8 21.1
5/8/26 - 2300 47.6 - 38 23.4 38.1 W | 274 1.9 4.1 W | 274 44.5 59.8 21.1
5/8/26 - 2245 49.3 - 32 21.0 38.3 W | 277 2.1 5.0 W | 277 44.5 59.8 21.1
5/8/26 - 2230 49.3 48.7 23 12.9 36.6 W | 281 3.2 7.3 W | 271 44.5 59.8 21.1
5/8/26 - 2215 49.8 - 22 11.7 36.6 W | 270 2.1 4.6 WSW | 256 44.5 59.8 21.1
5/8/26 - 2200 50.1 - 27 17.8 38.0 WSW | 258 1.7 6.2 SW | 236 44.5 59.8 21.1
5/8/26 - 2145 50.4 - 32 21.7 39.1 W | 279 2.3 8.4 WSW | 257 44.5 59.8 21.1
5/8/26 - 2130 50.6 - 36 24.6 40.0 W | 261 1.8 8.4 SW | 236 44.5 59.8 21.1
5/8/26 - 2115 51.0 - 34 23.8 39.9 SW | 221 1.7 7.0 SW | 231 44.5 59.8 21.1
5/8/26 - 2100 51.0 - 35 24.6 40.2 SW | 233 2.6 8.9 SSW | 206 44.5 59.8 21.1
5/8/26 - 2045 51.0 - 33 22.8 39.7 SW | 231 1.8 7.3 SW | 217 44.5 59.8 21.1
5/8/26 - 2030 50.8 - 39 26.9 40.8 SW | 233 2.5 14.5 WSW | 250 44.5 59.8 21.1
5/8/26 - 2015 50.4 - 46 30.5 41.8 SW | 229 5.6 11.6 WSW | 237 44.5 59.8 21.1
5/8/26 - 2000 50.9 - 47 31.2 42.2 SW | 230 5.3 12.0 WSW | 250 44.5 59.8 21.1
5/8/26 - 1945 51.2 - 46 31.0 42.3 WSW | 238 5.7 12.4 W | 260 44.5 59.8 21.1
5/8/26 - 1930 50.8 - 51 33.1 42.9 SW | 236 5.4 13.3 WSW | 251 44.5 59.8 21.1
5/8/26 - 1915 50.4 - 52 33.4 42.8 SW | 229 8.4 16.7 WSW | 246 44.5 59.8 21.1
5/8/26 - 1900 51.0 - 52 34.0 43.3 SW | 217 6.4 14.3 SSW | 210 44.5 59.8 21.1
5/8/26 - 1845 51.6 - 52 34.4 43.8 SW | 229 6.4 15.1 SSW | 211 44.5 59.8 21.1
5/8/26 - 1830 51.8 - 51 34.2 43.8 SW | 236 8.3 17.8 WSW | 244 44.5 59.8 21.1
5/8/26 - 1815 52.1 - 50 34.1 43.9 SW | 231 6.9 18.4 SW | 219 44.5 59.8 21.1
5/8/26 - 1800 53.3 - 46 33.1 44.1 SW | 229 5.5 15.7 WSW | 241 44.5 59.8 21.1
5/8/26 - 1745 54.5 - 44 32.9 44.6 SW | 226 6.4 14.6 WSW | 245 44.5 59.8 21.1
5/8/26 - 1730 55.7 - 43 33.4 45.3 SW | 221 6.1 14.9 SW | 217 44.5 59.8 21.1
5/8/26 - 1715 56.9 - 41 33.3 45.8 SSW | 198 6.3 14.9 SSW | 212 44.5 59.8 21.1
5/8/26 - 1700 57.0 - 40 32.7 45.6 SSW | 193 6.1 13.5 S | 190 44.5 59.8 21.1
5/8/26 - 1645 56.8 - 39 32.1 45.3 S | 189 4.7 15.7 SSW | 206 44.5 59.8 21.1
5/8/26 - 1630 56.6 - 39 31.9 45.2 S | 172 3.5 11.0 SW | 228 44.5 59.8 21.1
5/8/26 - 1615 56.7 - 39 31.7 45.1 S | 176 4.0 12.8 SSE | 164 44.5 59.8 21.1
5/8/26 - 1600 56.1 - 38 30.9 44.6 S | 179 4.5 16.1 SSE | 158 44.5 59.8 21.1
5/8/26 - 1545 56.9 - 35 29.5 44.5 S | 188 4.7 15.3 S | 180 44.5 59.8 21.1
5/8/26 - 1530 56.7 - 33 27.9 43.8 SSW | 195 4.5 15.0 S | 188 44.5 59.8 21.1
5/8/26 - 1515 57.9 - 30 26.9 44.1 S | 187 6.7 17.2 SSW | 200 44.5 59.8 21.1
5/8/26 - 1500 57.6 - 30 26.5 43.8 SW | 219 3.8 13.4 S | 179 44.5 59.8 21.1
5/8/26 - 1445 57.3 - 28 24.8 43.2 SW | 236 4.0 13.5 WNW | 284 44.5 59.8 21.1
5/8/26 - 1430 56.4 - 27 23.1 42.4 SW | 227 3.2 11.5 WSW | 246 44.5 59.8 21.1
5/8/26 - 1415 56.9 - 26 22.6 42.5 WSW | 242 3.6 11.7 SSW | 198 44.5 59.8 21.1
5/8/26 - 1400 57.1 - 23 19.7 41.8 S | 182 6.1 17.7 SSE | 157 44.5 59.8 21.1
5/8/26 - 1345 57.0 - 22 18.4 41.5 S | 181 7.7 20.8 S | 185 44.5 59.8 21.1
5/8/26 - 1330 57.3 - 19 15.4 41.0 S | 178 6.7 15.7 SSW | 201 44.5 59.8 21.1
5/8/26 - 1315 57.3 - 18 14.5 40.8 S | 188 6.6 19.4 SSW | 208 44.5 59.6 21.1
5/8/26 - 1300 56.3 - 18 13.8 40.2 S | 187 5.1 16.7 SSW | 201 44.5 59.1 21.1
5/8/26 - 1245 56.8 - 17 12.9 40.3 S | 175 3.8 15.9 SSE | 161 44.5 59.1 21.1
5/8/26 - 1230 55.5 - 17 11.5 39.4 S | 171 3.8 14.3 SSW | 192 44.5 57.2 21.1
5/8/26 - 1215 55.7 - 16 10.0 39.3 WSW | 243 2.6 13.6 WSW | 242 44.5 57.2 21.1
5/8/26 - 1200 55.6 - 15 8.3 39.0 SW | 229 2.7 10.8 SSE | 164 44.5 57.2 21.1
5/8/26 - 1145 55.4 - 14 6.2 38.6 SW | 236 3.1 12.3 WSW | 246 44.5 56.5 21.1
5/8/26 - 1130 54.7 - 10 -0.1 37.4 SSW | 206 4.1 13.4 S | 173 44.5 56.5 21.1
5/8/26 - 1115 54.5 - 9 -3.9 37.0 SW | 229 2.6 10.2 WNW | 291 44.5 55.8 21.1
5/8/26 - 1100 54.1 - 8 -5.3 36.6 WSW | 238 3.0 10.4 SSW | 201 44.5 55.8 21.1
5/8/26 - 1045 53.7 - 8 -6.7 36.3 SSW | 196 3.3 13.3 SW | 221 44.5 55.8 21.1
5/8/26 - 1030 54.0 - 8 -5.4 36.6 SSE | 158 2.6 9.4 S | 185 44.5 55.8 21.1
5/8/26 - 1015 53.1 - 8 -5.7 36.1 S | 188 3.4 12.0 SE | 138 44.5 54.1 21.1
5/8/26 - 1000 52.7 - 8 -6.7 35.8 SW | 220 2.7 9.7 SW | 236 44.5 53.2 21.1
5/8/26 - 0945 52.4 - 9 -4.3 35.8 S | 176 3.2 15.1 SW | 223 44.5 53.2 21.1
5/8/26 - 0930 52.2 - 9 -4.6 35.7 SSW | 210 1.4 7.2 NE | 44 44.5 52.8 21.1
5/8/26 - 0915 52.4 - 8 -6.2 35.7 WSW | 246 2.1 8.8 WSW | 240 44.5 52.8 21.1
5/8/26 - 0900 52.2 - 8 -8.4 35.4 SW | 225 2.4 8.3 SW | 224 44.5 52.6 21.1
5/8/26 - 0845 51.8 - 9 -5.7 35.4 SW | 231 4.9 11.3 SW | 227 44.5 52.0 21.1
5/8/26 - 0830 51.4 - 9 -5.2 35.2 SW | 233 5.0 16.6 WSW | 254 44.5 51.7 21.1
5/8/26 - 0815 51.2 - 8 -8.6 34.8 SW | 235 2.1 8.0 WSW | 254 44.5 51.4 21.1
5/8/26 - 0800 50.6 - 8 -9.5 34.4 SW | 218 1.1 6.6 WSW | 258 44.5 51.2 21.1
5/8/26 - 0745 50.2 - 8 -9.3 34.2 SSW | 208 3.9 11.2 SW | 228 44.5 50.4 21.1
5/8/26 - 0730 49.3 46.7 9 -6.3 34.0 SSW | 210 6.3 16.6 SW | 222 44.5 49.7 21.1
5/8/26 - 0715 49.0 46.9 10 -6.0 33.9 SW | 216 5.2 13.6 SW | 234 44.5 49.1 21.1
5/8/26 - 0700 48.2 45.4 12 -1.4 33.9 SSW | 213 6.1 16.7 SSW | 203 44.5 48.6 21.1
5/8/26 - 0645 47.4 44.7 15 1.8 33.8 SSW | 208 5.9 18.6 SW | 231 44.5 47.7 21.1
5/8/26 - 0630 46.5 43.5 18 5.1 33.8 SW | 219 6.0 14.9 WSW | 248 44.5 47.4 21.1
5/8/26 - 0615 46.1 43.3 17 4.0 33.4 SW | 218 5.5 20.7 S | 179 44.5 47.4 21.1
Max 63.0 48.7 52 34.4 45.8 - 8.4 20.8 - 46.4 64.0 21.1
Avg 51.8 45.1 27 17.1 39.0 - 3.2 8.7 - - - -
Min 42.9 41.4 8 -9.5 33.4 - 0.4 1.8 - 42.3 45.0 3.1